Aviation Digital Data Service (ADDS)

Output produced by METARs form (1518 UTC 22 April 2021)
found at http://www.aviationweather.gov/metar/data/
 
KDLH 221132Z 2212/2312 22005KT P6SM SKC 
     FM221800 26010G16KT P6SM SKC 
     FM230000 25008KT P6SM SKC 
     FM231100 25007KT P6SM BKN100